Time;durP1;ratioP1;P1;durP2;ratioP2;P2;SDS_P1;SDS_P2;PMS_P1;PMS_P2;Temp;Humidity;BMP_temperature;BMP_pressure;BME280_temperature;BME280_humidity;BME280_pressure;Samples;Min_cycle;Max_cycle;Signal;HPM_P1;HPM_P2
2023/01/25 00:01:57;;;;;;;69.17;23.03;;;1.00;99.90;;;;;;5035400;28;20130;-73
2023/01/25 00:04:23;;;;;;;60.72;19.70;;;1.10;99.90;;;;;;5051701;28;20287;-71
2023/01/25 00:06:50;;;;;;;69.20;24.02;;;1.10;99.90;;;;;;5051686;28;20171;-72
2023/01/25 00:09:16;;;;;;;71.80;24.23;;;1.10;99.90;;;;;;5052952;28;20041;-71
2023/01/25 00:11:43;;;;;;;69.07;23.60;;;1.10;99.90;;;;;;5051789;28;20504;-72
2023/01/25 00:14:10;;;;;;;76.35;25.88;;;1.10;99.90;;;;;;5052873;28;20132;-72
2023/01/25 00:16:36;;;;;;;70.68;24.02;;;1.00;99.90;;;;;;5085507;28;20057;-71
2023/01/25 00:19:02;;;;;;;69.70;22.75;;;0.90;99.90;;;;;;5052769;28;20045;-72
2023/01/25 00:21:28;;;;;;;61.33;21.60;;;1.00;99.90;;;;;;5036004;28;20045;-72
2023/01/25 00:23:54;;;;;;;69.30;23.98;;;1.10;99.90;;;;;;5052551;28;20361;-72
2023/01/25 00:26:20;;;;;;;72.70;24.13;;;1.00;99.90;;;;;;5052601;28;20435;-74
2023/01/25 00:28:54;;;;;;;69.25;23.70;;;1.00;99.90;;;;;;5035407;28;20049;-71
2023/01/25 00:31:32;;;;;;;68.75;24.17;;;0.90;99.90;;;;;;5052684;28;20103;-72
2023/01/25 00:34:19;;;;;;;71.93;23.80;;;1.00;99.90;;;;;;5052279;28;20490;-72
2023/01/25 00:36:44;;;;;;;;;;;1.00;99.90;;;;;;5053893;28;20076;-71
2023/01/25 00:39:12;;;;;;;74.68;23.38;;;1.00;99.90;;;;;;5053178;28;19928;-71
2023/01/25 00:41:38;;;;;;;74.75;25.88;;;1.00;99.90;;;;;;5051312;28;20135;-72
2023/01/25 00:44:04;;;;;;;69.65;24.27;;;1.00;99.90;;;;;;5034984;28;20519;-72
2023/01/25 00:46:30;;;;;;;69.50;22.88;;;0.90;99.90;;;;;;5052061;28;20465;-71
2023/01/25 00:48:56;;;;;;;68.70;23.55;;;0.90;99.90;;;;;;5051519;28;20186;-71
2023/01/25 00:51:23;;;;;;;70.63;23.20;;;1.00;99.90;;;;;;5085922;28;20477;-72
2023/01/25 00:53:49;;;;;;;72.75;24.38;;;1.00;99.90;;;;;;5054872;28;20044;-72
2023/01/25 00:56:14;;;;;;;73.95;25.00;;;1.00;99.90;;;;;;5056013;28;20064;-72
2023/01/25 00:58:41;;;;;;;76.40;25.85;;;1.00;99.90;;;;;;5055843;28;20207;-72
2023/01/25 01:01:06;;;;;;;78.03;27.08;;;1.00;99.90;;;;;;5088005;28;20434;-72
2023/01/25 01:03:32;;;;;;;73.40;24.73;;;1.10;99.90;;;;;;5055779;28;20235;-72
2023/01/25 01:06:09;;;;;;;72.20;24.50;;;1.10;99.90;;;;;;5038269;28;20067;-72
2023/01/25 01:08:38;;;;;;;70.22;22.40;;;1.10;99.90;;;;;;5054444;28;20095;-72
2023/01/25 01:11:07;;;;;;;77.13;24.88;;;1.00;99.90;;;;;;5056268;28;20135;-71
2023/01/25 01:13:33;;;;;;;76.25;25.98;;;0.90;99.90;;;;;;5056066;28;20477;-71
2023/01/25 01:16:04;;;;;;;80.05;26.85;;;0.80;99.90;;;;;;5055956;28;20358;-72
2023/01/25 01:18:34;;;;;;;70.43;24.15;;;0.80;99.90;;;;;;5055374;28;20052;-72
2023/01/25 01:21:01;;;;;;;75.75;24.60;;;0.80;99.90;;;;;;5038457;28;20063;-72
2023/01/25 01:23:30;;;;;;;71.47;24.38;;;0.90;99.90;;;;;;5054647;28;20099;-74
2023/01/25 01:25:59;;;;;;;72.65;23.55;;;0.90;99.90;;;;;;5054489;28;20045;-72
2023/01/25 01:28:28;;;;;;;73.43;24.20;;;0.90;99.90;;;;;;5088140;28;20041;-72
2023/01/25 01:30:58;;;;;;;71.10;23.35;;;0.90;99.90;;;;;;5055665;28;20060;-72
2023/01/25 01:33:24;;;;;;;72.70;24.92;;;1.00;99.90;;;;;;5088263;28;20102;-71
2023/01/25 01:35:50;;;;;;;68.93;23.52;;;0.90;99.90;;;;;;5054762;28;20495;-72
2023/01/25 01:38:15;;;;;;;75.63;23.75;;;0.90;99.90;;;;;;5053855;28;20059;-72
2023/01/25 01:40:48;;;;;;;66.45;22.95;;;0.90;99.90;;;;;;5037396;28;20398;-71
2023/01/25 01:43:22;;;;;;;61.88;19.70;;;0.90;99.90;;;;;;5055593;28;20421;-71
2023/01/25 01:45:48;;;;;;;64.07;20.30;;;0.90;99.90;;;;;;5053541;28;20504;-71
2023/01/25 01:48:25;;;;;;;63.20;21.60;;;1.00;99.90;;;;;;5055021;28;20053;-72
2023/01/25 01:50:53;;;;;;;60.75;21.38;;;0.90;99.90;;;;;;5054263;28;20182;-72
2023/01/25 01:53:22;;;;;;;59.15;20.45;;;0.90;99.90;;;;;;5054893;28;20132;-72
2023/01/25 01:55:47;;;;;;;62.35;21.23;;;0.90;99.90;;;;;;5054848;28;20166;-72
2023/01/25 01:58:13;;;;;;;60.05;20.55;;;0.90;99.90;;;;;;5054810;28;20132;-71
2023/01/25 02:00:40;;;;;;;59.08;20.02;;;0.90;99.90;;;;;;5054674;28;20076;-72
2023/01/25 02:03:08;;;;;;;60.28;20.13;;;0.90;99.90;;;;;;5053316;28;20053;-72
2023/01/25 02:05:49;;;;;;;60.75;20.58;;;0.80;99.90;;;;;;5054468;28;20072;-72
2023/01/25 02:08:16;;;;;;;60.30;20.67;;;0.80;99.90;;;;;;5087243;28;20049;-72
2023/01/25 02:10:44;;;;;;;59.85;20.88;;;0.80;99.90;;;;;;5053426;28;20157;-71
2023/01/25 02:13:10;;;;;;;56.28;18.75;;;0.70;99.90;;;;;;5053514;28;20548;-71
2023/01/25 02:15:43;;;;;;;60.45;20.70;;;0.70;99.90;;;;;;5054423;28;20136;-72
2023/01/25 02:18:10;;;;;;;56.97;20.33;;;0.70;99.90;;;;;;5055248;28;20033;-71
2023/01/25 02:20:39;;;;;;;57.30;19.33;;;0.70;99.90;;;;;;5053598;28;20045;-71
2023/01/25 02:23:26;;;;;;;57.90;19.85;;;0.70;99.90;;;;;;5054279;28;20485;-71
2023/01/25 02:25:54;;;;;;;58.50;20.17;;;0.70;99.90;;;;;;5053396;28;20536;-72
2023/01/25 02:28:25;;;;;;;62.83;20.45;;;0.70;99.90;;;;;;5054249;28;20084;-72
2023/01/25 02:30:51;;;;;;;54.38;19.35;;;0.70;99.90;;;;;;5053651;28;20064;-72
2023/01/25 02:33:17;;;;;;;56.97;20.33;;;0.80;99.90;;;;;;5053726;28;20080;-72
2023/01/25 02:35:50;;;;;;;56.17;18.85;;;0.80;99.90;;;;;;5086643;28;20462;-72
2023/01/25 02:38:18;;;;;;;56.55;19.75;;;0.80;99.90;;;;;;5053563;28;20091;-71
2023/01/25 02:40:47;;;;;;;58.80;19.80;;;0.80;99.90;;;;;;5052711;28;20127;-72
2023/01/25 02:43:15;;;;;;;64.80;24.52;;;0.70;99.90;;;;;;5053964;28;20187;-72
2023/01/25 02:45:44;;;;;;;61.20;20.63;;;0.50;99.90;;;;;;5036872;28;20053;-71
2023/01/25 02:48:10;;;;;;;54.28;19.35;;;0.50;99.90;;;;;;5053970;28;20084;-72
2023/01/25 02:50:36;;;;;;;57.25;19.65;;;0.40;99.90;;;;;;5053391;28;20076;-72
2023/01/25 02:53:01;;;;;;;59.40;19.67;;;0.50;99.90;;;;;;5035925;28;20049;-72
2023/01/25 02:55:27;;;;;;;58.47;20.75;;;0.50;99.90;;;;;;5053782;28;20148;-72
2023/01/25 02:57:53;;;;;;;61.58;20.70;;;0.60;99.90;;;;;;5053612;28;20049;-72
2023/01/25 03:00:19;;;;;;;61.00;21.85;;;0.50;99.90;;;;;;5086088;28;20041;-72
2023/01/25 03:02:44;;;;;;;57.60;20.05;;;0.60;99.90;;;;;;5019693;28;20082;-71
2023/01/25 03:05:10;;;;;;;61.95;23.05;;;0.60;99.90;;;;;;5054085;28;20048;-72
2023/01/25 03:07:36;;;;;;;57.90;20.08;;;0.50;99.90;;;;;;5052668;28;20123;-72
2023/01/25 03:10:01;;;;;;;61.25;21.23;;;0.50;99.90;;;;;;5052732;28;20051;-71
2023/01/25 03:12:27;;;;;;;59.75;20.90;;;0.50;99.90;;;;;;5053238;28;20071;-72
2023/01/25 03:14:53;;;;;;;62.88;21.23;;;0.60;99.90;;;;;;5052916;28;20049;-72
2023/01/25 03:17:18;;;;;;;62.53;21.48;;;0.60;99.90;;;;;;5053325;28;20489;-72
2023/01/25 03:19:44;;;;;;;60.47;20.60;;;0.50;99.90;;;;;;5052219;28;20099;-72
2023/01/25 03:22:10;;;;;;;59.63;20.83;;;0.50;99.90;;;;;;5052748;28;20076;-71
2023/01/25 03:24:35;;;;;;;61.03;20.80;;;0.60;99.90;;;;;;5052183;28;20127;-71
2023/01/25 03:27:12;;;;;;;62.90;21.25;;;0.60;99.90;;;;;;5019186;28;20056;-72
2023/01/25 03:29:37;;;;;;;61.85;21.15;;;0.60;99.90;;;;;;5052081;28;20460;-72
2023/01/25 03:32:03;;;;;;;61.30;21.42;;;0.60;99.90;;;;;;5052923;28;20044;-71
2023/01/25 03:34:29;;;;;;;63.63;21.60;;;0.70;99.90;;;;;;5085365;28;20166;-71
2023/01/25 03:36:55;;;;;;;60.88;21.40;;;0.70;99.90;;;;;;5053529;28;20079;-72
2023/01/25 03:39:21;;;;;;;67.93;23.52;;;0.70;99.90;;;;;;5052479;28;20474;-71
2023/01/25 03:41:46;;;;;;;66.28;22.67;;;0.60;99.90;;;;;;5019777;28;20063;-73
2023/01/25 03:44:12;;;;;;;65.75;22.27;;;0.60;99.90;;;;;;5052976;28;20051;-72
2023/01/25 03:46:39;;;;;;;68.43;22.75;;;0.70;99.90;;;;;;5035985;28;20049;-72
2023/01/25 03:49:06;;;;;;;65.13;22.42;;;0.60;99.90;;;;;;5052840;28;20051;-72
2023/01/25 03:51:31;;;;;;;71.00;22.27;;;0.60;99.90;;;;;;5053393;28;20084;-71
2023/01/25 03:53:57;;;;;;;68.55;24.33;;;0.60;99.90;;;;;;5052832;28;20090;-72
2023/01/25 03:56:23;;;;;;;73.45;23.77;;;0.50;99.90;;;;;;5051853;28;20052;-72
2023/01/25 03:58:49;;;;;;;66.30;22.30;;;0.40;99.90;;;;;;5052745;28;20053;-73
2023/01/25 04:01:14;;;;;;;69.38;23.65;;;0.40;99.90;;;;;;5053403;28;20437;-71
2023/01/25 04:03:40;;;;;;;65.53;21.73;;;0.40;99.90;;;;;;5053331;28;20099;-74
2023/01/25 04:06:06;;;;;;;60.00;20.42;;;0.50;99.90;;;;;;5052673;28;20169;-71
2023/01/25 04:08:33;;;;;;;63.88;21.05;;;0.50;99.90;;;;;;5034927;28;20481;-71
2023/01/25 04:11:04;;;;;;;60.63;21.60;;;0.40;99.90;;;;;;5053590;28;20037;-72
2023/01/25 04:13:30;;;;;;;60.42;20.75;;;0.40;99.90;;;;;;5085356;28;20374;-72
2023/01/25 04:15:56;;;;;;;66.18;22.05;;;0.40;99.90;;;;;;5052733;28;20124;-73
2023/01/25 04:18:22;;;;;;;68.32;22.58;;;0.40;99.90;;;;;;5035784;28;20457;-72
2023/01/25 04:20:55;;;;;;;64.80;21.20;;;0.40;99.90;;;;;;5052755;28;20051;-71
2023/01/25 04:23:21;;;;;;;60.25;20.48;;;0.40;99.90;;;;;;5085259;28;20084;-71
2023/01/25 04:26:00;;;;;;;60.53;21.10;;;0.50;99.90;;;;;;5054255;28;20127;-72
2023/01/25 04:28:27;;;;;;;63.03;21.67;;;0.50;99.90;;;;;;5056977;28;20041;-71
2023/01/25 04:30:54;;;;;;;59.90;19.95;;;0.40;99.90;;;;;;5056173;28;20057;-71
2023/01/25 04:33:20;;;;;;;56.13;18.88;;;0.40;99.90;;;;;;5055226;28;20045;-72
2023/01/25 04:35:46;;;;;;;60.00;19.58;;;0.40;99.90;;;;;;5022245;28;20473;-71
2023/01/25 04:38:12;;;;;;;56.28;19.23;;;0.40;99.90;;;;;;5055223;28;20044;-72
2023/01/25 04:40:38;;;;;;;62.93;19.87;;;0.40;99.90;;;;;;5056072;28;20335;-71
2023/01/25 04:43:05;;;;;;;59.30;20.92;;;0.50;99.90;;;;;;5038368;28;20511;-72
2023/01/25 04:45:32;;;;;;;58.37;19.33;;;0.60;99.90;;;;;;5089484;28;20060;-71
2023/01/25 04:48:00;;;;;;;60.10;21.08;;;0.50;99.90;;;;;;5055271;28;20052;-72
2023/01/25 04:50:26;;;;;;;60.85;21.33;;;0.50;99.90;;;;;;5056562;28;20052;-72
2023/01/25 04:52:52;;;;;;;64.28;23.00;;;0.50;99.90;;;;;;5056029;28;20060;-72
2023/01/25 04:55:18;;;;;;;62.90;21.50;;;0.60;99.90;;;;;;5088547;28;20043;-72
2023/01/25 04:57:44;;;;;;;59.50;21.05;;;0.60;99.90;;;;;;5055938;28;20041;-71
2023/01/25 05:00:11;;;;;;;57.40;20.17;;;0.50;99.90;;;;;;5055815;28;20053;-72
2023/01/25 05:02:38;;;;;;;58.53;21.23;;;0.50;99.90;;;;;;5055950;28;20048;-72
2023/01/25 05:05:04;;;;;;;60.80;19.48;;;0.60;99.90;;;;;;5071384;28;20049;-72
2023/01/25 05:07:30;;;;;;;55.17;20.38;;;0.60;99.90;;;;;;5021534;28;20507;-71
2023/01/25 05:09:55;;;;;;;55.97;19.10;;;0.60;99.90;;;;;;5055731;28;20142;-73
2023/01/25 05:12:21;;;;;;;57.35;20.33;;;0.60;99.90;;;;;;5071410;28;20071;-71
2023/01/25 05:14:47;;;;;;;55.08;20.02;;;0.60;99.90;;;;;;5056165;28;20049;-73
2023/01/25 05:17:13;;;;;;;58.35;20.10;;;0.60;99.90;;;;;;5056017;28;20071;-73
2023/01/25 05:19:38;;;;;;;59.85;19.92;;;0.60;99.90;;;;;;5054181;28;20052;-71
2023/01/25 05:22:06;;;;;;;53.67;19.55;;;0.50;99.90;;;;;;5055644;28;20045;-72
2023/01/25 05:24:34;;;;;;;56.80;20.33;;;0.50;99.90;;;;;;5053875;28;20087;-71
2023/01/25 05:27:04;;;;;;;55.83;19.67;;;0.50;99.90;;;;;;5053959;28;20037;-71
2023/01/25 05:29:35;;;;;;;52.40;18.73;;;0.60;99.90;;;;;;5055896;28;20052;-71
2023/01/25 05:32:05;;;;;;;51.47;19.10;;;0.50;99.90;;;;;;5053788;28;20061;-72
2023/01/25 05:34:32;;;;;;;55.88;19.58;;;0.50;99.90;;;;;;5054319;28;20049;-72
2023/01/25 05:36:58;;;;;;;53.20;20.25;;;0.60;99.90;;;;;;5054929;28;20037;-71
2023/01/25 05:39:24;;;;;;;51.80;19.02;;;0.50;99.90;;;;;;5053480;28;20055;-72
2023/01/25 05:41:50;;;;;;;53.65;18.65;;;0.50;99.90;;;;;;5055114;28;20148;-71
2023/01/25 05:44:16;;;;;;;53.40;18.27;;;0.50;99.90;;;;;;5053931;28;20167;-72
2023/01/25 05:46:42;;;;;;;54.90;18.23;;;0.50;99.90;;;;;;5053594;28;20041;-72
2023/01/25 05:49:09;;;;;;;53.47;18.15;;;0.40;99.90;;;;;;5054773;28;20128;-71
2023/01/25 05:51:35;;;;;;;50.53;18.50;;;0.50;99.90;;;;;;5053730;28;20053;-71
2023/01/25 05:54:01;;;;;;;54.97;18.77;;;0.50;99.90;;;;;;5087432;28;20106;-73
2023/01/25 05:56:28;;;;;;;52.47;18.73;;;0.40;99.90;;;;;;5053864;28;20059;-72
2023/01/25 05:58:54;;;;;;;55.55;19.02;;;0.40;99.90;;;;;;5055260;28;20053;-71
2023/01/25 06:01:20;;;;;;;57.60;20.08;;;0.40;99.90;;;;;;5053504;28;20055;-71
2023/01/25 06:03:47;;;;;;;53.00;18.33;;;0.30;99.90;;;;;;5053693;28;20041;-70
2023/01/25 06:06:12;;;;;;;56.63;18.85;;;0.40;99.90;;;;;;5037587;28;20053;-72
2023/01/25 06:08:38;;;;;;;58.10;20.85;;;0.40;99.90;;;;;;5053261;28;20051;-71
2023/01/25 06:11:08;;;;;;;54.25;19.50;;;0.40;99.90;;;;;;5054135;28;20056;-71
2023/01/25 06:13:34;;;;;;;57.47;20.35;;;0.30;99.90;;;;;;5054360;28;20041;-70
2023/01/25 06:15:59;;;;;;;59.13;20.17;;;0.30;99.90;;;;;;5053779;28;20105;-70
2023/01/25 06:18:30;;;;;;;58.40;20.55;;;0.30;99.90;;;;;;5054020;28;20053;-71
2023/01/25 06:20:57;;;;;;;52.15;19.40;;;0.30;99.90;;;;;;5055185;28;20041;-71
2023/01/25 06:23:23;;;;;;;64.10;21.65;;;0.30;99.90;;;;;;5055148;28;20087;-73
2023/01/25 06:25:49;;;;;;;53.95;18.65;;;0.30;99.90;;;;;;5053086;28;20091;-72
2023/01/25 06:28:15;;;;;;;62.13;19.88;;;0.40;99.90;;;;;;5037061;28;20106;-71
2023/01/25 06:30:41;;;;;;;60.47;21.23;;;0.40;99.90;;;;;;5054073;28;20139;-71
2023/01/25 06:33:06;;;;;;;56.72;20.55;;;0.40;99.90;;;;;;5053941;28;20053;-72
2023/01/25 06:35:33;;;;;;;56.85;19.77;;;0.40;99.90;;;;;;5086828;28;20048;-71
2023/01/25 06:37:59;;;;;;;61.30;18.87;;;0.40;99.90;;;;;;5054017;28;20045;-71
2023/01/25 06:40:26;;;;;;;52.72;17.80;;;0.40;99.90;;;;;;5086411;28;20052;-71
2023/01/25 06:42:52;;;;;;;52.13;19.13;;;0.30;99.90;;;;;;5053887;28;20124;-71
2023/01/25 06:45:18;;;;;;;59.95;20.75;;;0.30;99.90;;;;;;5052506;28;20132;-71
2023/01/25 06:47:45;;;;;;;53.83;18.48;;;0.20;99.90;;;;;;5052670;28;20102;-72
2023/01/25 06:50:11;;;;;;;54.13;18.40;;;0.10;99.90;;;;;;5052679;28;20128;-70
2023/01/25 06:52:37;;;;;;;54.58;18.63;;;0.10;99.90;;;;;;5052720;28;20083;-71
2023/01/25 06:55:08;;;;;;;56.00;19.83;;;0.20;99.90;;;;;;5052883;28;20087;-71
2023/01/25 06:57:34;;;;;;;52.22;19.02;;;0.20;99.90;;;;;;5052936;28;20045;-71
2023/01/25 07:00:00;;;;;;;52.83;18.35;;;0.20;99.90;;;;;;5036092;28;20048;-72
2023/01/25 07:02:26;;;;;;;53.83;19.60;;;0.20;99.90;;;;;;5052409;28;20041;-72
2023/01/25 07:04:52;;;;;;;54.20;19.30;;;0.20;99.90;;;;;;5053899;28;20119;-73
2023/01/25 07:07:17;;;;;;;49.55;17.88;;;0.20;99.90;;;;;;5053074;28;20091;-72
2023/01/25 07:09:43;;;;;;;56.22;19.55;;;0.30;99.90;;;;;;5052264;28;20102;-72
2023/01/25 07:12:09;;;;;;;52.17;19.00;;;0.20;99.90;;;;;;5052706;28;20060;-72
2023/01/25 07:14:35;;;;;;;55.70;18.73;;;0.30;99.90;;;;;;5052318;28;20048;-71
2023/01/25 07:17:00;;;;;;;54.05;18.52;;;0.30;99.90;;;;;;5053284;28;20045;-71
2023/01/25 07:19:26;;;;;;;53.30;18.92;;;0.40;99.90;;;;;;5052557;28;20052;-71
2023/01/25 07:21:52;;;;;;;60.58;19.25;;;0.30;99.90;;;;;;5052090;28;20136;-71
2023/01/25 07:24:19;;;;;;;57.47;19.80;;;0.30;99.90;;;;;;5053142;28;20179;-71
2023/01/25 07:26:46;;;;;;;51.45;18.92;;;0.30;99.90;;;;;;5052012;28;20049;-71
2023/01/25 07:29:14;;;;;;;53.92;18.02;;;0.30;99.90;;;;;;5035648;28;20397;-71
2023/01/25 07:31:41;;;;;;;56.17;19.33;;;0.30;99.90;;;;;;5051763;28;20405;-71
2023/01/25 07:34:12;;;;;;;51.65;18.83;;;0.30;99.90;;;;;;5052005;28;20463;-71
2023/01/25 07:36:39;;;;;;;52.08;18.13;;;0.30;99.90;;;;;;5052810;28;20120;-71
2023/01/25 07:39:05;;;;;;;51.50;17.63;;;0.30;99.90;;;;;;5053219;28;20457;-71
2023/01/25 07:41:31;;;;;;;52.15;18.70;;;0.20;99.90;;;;;;5051977;28;20052;-72
2023/01/25 07:43:57;;;;;;;54.08;18.02;;;0.20;99.90;;;;;;5053092;28;20178;-71
2023/01/25 07:46:23;;;;;;;54.17;18.30;;;0.20;99.90;;;;;;5051702;28;20060;-71
2023/01/25 07:48:50;;;;;;;57.53;19.48;;;0.20;99.90;;;;;;5053059;28;20044;-70
2023/01/25 07:51:21;;;;;;;50.60;16.30;;;0.20;99.90;;;;;;5053445;28;20052;-71
2023/01/25 07:53:52;;;;;;;53.72;18.70;;;0.10;99.90;;;;;;5053886;28;20056;-71
2023/01/25 07:56:19;;;;;;;48.95;16.77;;;0.20;99.90;;;;;;5085703;28;20049;-71
2023/01/25 07:58:45;;;;;;;49.53;17.15;;;0.10;99.90;;;;;;5036076;28;20045;-71
2023/01/25 08:01:17;;;;;;;49.65;16.38;;;0.10;99.90;;;;;;5054558;28;20064;-70
2023/01/25 08:03:43;;;;;;;48.03;16.20;;;0.10;99.90;;;;;;5039444;28;20049;-71
2023/01/25 08:06:09;;;;;;;49.70;17.75;;;0.20;99.90;;;;;;5056056;28;20048;-71
2023/01/25 08:08:45;;;;;;;49.30;17.40;;;0.20;99.90;;;;;;5055891;28;20072;-71
2023/01/25 08:11:19;;;;;;;52.72;18.27;;;0.20;99.90;;;;;;5055933;28;20049;-72
2023/01/25 08:13:45;;;;;;;55.75;18.48;;;0.20;99.90;;;;;;5056858;28;20136;-71
2023/01/25 08:16:23;;;;;;;52.13;18.52;;;0.20;99.90;;;;;;5055499;28;20053;-71
2023/01/25 08:18:50;;;;;;;49.92;16.60;;;0.20;99.90;;;;;;5039481;28;20053;-70
2023/01/25 08:21:17;;;;;;;52.25;17.65;;;0.20;99.90;;;;;;5056739;28;20080;-71
2023/01/25 08:23:42;;;;;;;55.05;18.60;;;0.20;99.90;;;;;;5089950;28;20040;-70
2023/01/25 08:26:10;;;;;;;55.85;18.52;;;0.20;99.90;;;;;;5055310;28;20044;-71
2023/01/25 08:28:36;;;;;;;54.47;18.77;;;0.20;99.90;;;;;;5055227;28;20045;-71
2023/01/25 08:31:13;;;;;;;50.38;17.75;;;0.30;99.90;;;;;;5056064;28;20110;-71
2023/01/25 08:33:39;;;;;;;54.42;18.23;;;0.20;99.90;;;;;;5039563;28;20135;-71
2023/01/25 08:36:09;;;;;;;53.03;17.70;;;0.30;99.90;;;;;;5055335;28;20439;-71
2023/01/25 08:38:35;;;;;;;53.15;18.15;;;0.30;99.90;;;;;;5055880;28;20059;-72
2023/01/25 08:41:19;;;;;;;49.13;16.67;;;0.30;99.90;;;;;;5022472;28;20429;-72
2023/01/25 08:43:46;;;;;;;49.90;17.70;;;0.30;99.90;;;;;;5055141;28;20485;-71
2023/01/25 08:46:13;;;;;;;49.57;17.53;;;0.30;99.90;;;;;;5055855;28;20102;-72
2023/01/25 08:48:39;;;;;;;52.08;18.83;;;0.30;99.90;;;;;;5038441;28;20049;-71
2023/01/25 08:51:08;;;;;;;56.60;18.58;;;0.30;99.90;;;;;;5054892;28;20128;-72
2023/01/25 08:53:34;;;;;;;52.90;17.30;;;0.40;99.90;;;;;;5056406;28;20163;-72
2023/01/25 08:56:08;;;;;;;58.03;19.90;;;0.40;99.90;;;;;;5056028;28;20091;-71
2023/01/25 08:58:36;;;;;;;47.88;16.48;;;0.40;99.90;;;;;;5054922;28;20045;-71
2023/01/25 09:01:04;;;;;;;54.17;18.65;;;0.40;99.90;;;;;;5088437;28;20508;-71
2023/01/25 09:03:33;;;;;;;53.05;18.63;;;0.40;99.90;;;;;;5054691;28;20049;-70
2023/01/25 09:05:59;;;;;;;53.90;18.52;;;0.30;99.90;;;;;;5054551;28;20419;-70
2023/01/25 09:08:25;;;;;;;51.58;17.63;;;0.30;99.90;;;;;;5055567;28;20131;-72
2023/01/25 09:10:50;;;;;;;47.65;16.88;;;0.30;99.90;;;;;;5038257;28;20091;-72
2023/01/25 09:13:16;;;;;;;51.45;17.52;;;0.20;99.90;;;;;;5070223;28;20121;-71
2023/01/25 09:15:43;;;;;;;54.15;18.05;;;0.30;99.90;;;;;;5055495;28;20056;-72
2023/01/25 09:18:09;;;;;;;52.55;18.27;;;0.30;99.90;;;;;;5056305;28;20049;-71
2023/01/25 09:20:38;;;;;;;53.00;18.83;;;0.20;99.90;;;;;;5054279;28;20059;-71
2023/01/25 09:23:04;;;;;;;52.92;17.55;;;0.30;99.90;;;;;;5054970;28;20056;-71
2023/01/25 09:25:30;;;;;;;53.95;18.20;;;0.30;99.90;;;;;;5070982;28;20063;-72
2023/01/25 09:27:55;;;;;;;51.38;18.17;;;0.50;99.90;;;;;;5037084;28;20182;-71
2023/01/25 09:30:21;;;;;;;56.97;18.73;;;0.40;99.90;;;;;;5055020;28;20045;-71
2023/01/25 09:32:50;;;;;;;51.75;17.40;;;0.30;99.90;;;;;;5055301;28;20065;-71
2023/01/25 09:35:16;;;;;;;50.33;17.20;;;0.40;99.90;;;;;;5054869;28;20107;-71
2023/01/25 09:37:42;;;;;;;50.78;17.63;;;0.40;99.90;;;;;;5053857;28;20085;-71
2023/01/25 09:40:21;;;;;;;52.35;17.25;;;0.30;99.90;;;;;;5054044;28;20048;-71
2023/01/25 09:43:04;;;;;;;51.67;18.13;;;0.30;99.90;;;;;;5054043;28;20045;-72
2023/01/25 09:45:35;;;;;;;49.10;16.45;;;0.40;99.90;;;;;;5054180;28;20041;-72
2023/01/25 09:48:27;;;;;;;48.28;16.17;;;0.30;99.90;;;;;;5053899;28;20037;-71
2023/01/25 09:50:52;;;;;;;45.72;15.98;;;0.40;99.90;;;;;;5037095;28;20041;-72
2023/01/25 09:53:23;;;;;;;50.00;18.15;;;0.40;99.90;;;;;;5054677;28;20045;-71
2023/01/25 09:56:09;;;;;;;49.88;17.48;;;0.30;99.90;;;;;;5037969;28;20052;-71
2023/01/25 09:58:39;;;;;;;51.80;18.17;;;0.30;99.90;;;;;;5037250;28;20057;-71
2023/01/25 10:01:39;;;;;;;50.20;17.90;;;0.30;99.90;;;;;;5037942;28;20049;-71
2023/01/25 10:04:27;;;;;;;45.03;15.73;;;0.30;99.90;;;;;;5014711;28;20084;-71
2023/01/25 10:06:59;;;;;;;43.50;15.35;;;0.30;99.90;;;;;;5053685;28;20048;-72
2023/01/25 10:09:29;;;;;;;53.83;17.25;;;0.40;99.90;;;;;;5054677;28;20099;-71
2023/01/25 10:12:03;;;;;;;46.88;16.08;;;0.40;99.90;;;;;;5053103;28;20119;-72
2023/01/25 10:14:34;;;;;;;52.45;17.50;;;0.30;99.90;;;;;;5054227;28;20446;-71
2023/01/25 10:17:38;;;;;;;50.60;18.20;;;0.40;99.90;;;;;;5038398;28;20057;-70
2023/01/25 10:20:13;;;;;;;50.35;17.60;;;0.30;99.90;;;;;;5054271;28;20045;-71
2023/01/25 10:22:49;;;;;;;50.22;17.23;;;0.30;99.90;;;;;;5054782;28;20080;-72
2023/01/25 10:25:39;;;;;;;48.55;16.45;;;0.30;99.90;;;;;;5037102;28;20398;-72
2023/01/25 10:28:34;;;;;;;50.72;16.35;;;0.30;99.90;;;;;;5053848;28;20123;-72
2023/01/25 10:31:21;;;;;;;48.75;16.52;;;0.40;99.90;;;;;;5054106;28;20106;-72
2023/01/25 10:33:48;;;;;;;50.47;16.77;;;0.40;99.90;;;;;;5037245;28;20111;-72
2023/01/25 10:36:16;;;;;;;50.42;17.20;;;0.30;99.90;;;;;;5053069;28;20059;-72
2023/01/25 10:38:45;;;;;;;50.17;16.67;;;0.30;99.90;;;;;;5053363;28;20041;-72
2023/01/25 10:41:16;;;;;;;49.50;17.90;;;0.30;99.90;;;;;;5054000;28;20075;-72
2023/01/25 10:43:42;;;;;;;47.95;15.73;;;0.30;99.90;;;;;;5053545;28;20132;-71
2023/01/25 10:46:22;;;;;;;47.20;15.82;;;0.30;99.90;;;;;;5036096;28;20124;-72
2023/01/25 10:48:48;;;;;;;47.35;16.25;;;0.40;99.90;;;;;;5054565;28;20126;-71
2023/01/25 10:51:34;;;;;;;50.53;16.10;;;0.50;99.90;;;;;;5053740;28;20052;-72
2023/01/25 10:54:14;;;;;;;48.97;16.38;;;0.40;99.90;;;;;;5086315;28;20096;-72
2023/01/25 10:56:42;;;;;;;47.88;15.75;;;0.40;99.90;;;;;;5052519;28;20040;-70
2023/01/25 10:59:24;;;;;;;50.95;17.27;;;0.50;99.90;;;;;;5053609;28;20071;-72
2023/01/25 11:01:50;;;;;;;51.05;15.38;;;0.50;99.90;;;;;;5052482;28;20075;-72
2023/01/25 11:04:22;;;;;;;47.90;15.27;;;0.50;99.90;;;;;;5052666;28;20495;-72
2023/01/25 11:06:50;;;;;;;47.95;16.40;;;0.50;99.90;;;;;;5053702;28;20393;-72
2023/01/25 11:09:29;;;;;;;51.92;17.40;;;0.50;99.90;;;;;;5036156;28;20056;-71
2023/01/25 11:11:59;;;;;;;48.97;15.88;;;0.50;99.90;;;;;;5052357;28;20512;-71
2023/01/25 11:14:30;;;;;;;48.60;15.10;;;0.50;99.90;;;;;;5053336;28;20044;-71
2023/01/25 11:16:58;;;;;;;51.83;16.38;;;0.50;99.90;;;;;;5053095;28;20056;-71
2023/01/25 11:19:28;;;;;;;47.67;15.65;;;0.50;99.90;;;;;;5053617;28;20115;-71
2023/01/25 11:21:56;;;;;;;50.55;15.85;;;0.30;99.90;;;;;;5051938;28;20099;-72
2023/01/25 11:24:26;;;;;;;49.67;15.65;;;0.30;99.90;;;;;;5085600;28;20100;-72
2023/01/25 11:27:16;;;;;;;49.97;15.65;;;0.30;99.90;;;;;;5053945;28;20076;-71
2023/01/25 11:29:45;;;;;;;51.75;16.40;;;0.40;99.90;;;;;;5052012;28;20048;-72
2023/01/25 11:32:21;;;;;;;52.58;16.70;;;0.30;99.90;;;;;;5035192;28;20057;-71
2023/01/25 11:34:49;;;;;;;55.47;17.75;;;0.30;99.90;;;;;;5053088;28;20110;-71
2023/01/25 11:37:27;;;;;;;60.35;19.02;;;0.40;99.90;;;;;;5052609;28;20048;-71
2023/01/25 11:39:55;;;;;;;54.28;17.63;;;0.30;99.90;;;;;;5051791;28;20420;-72
2023/01/25 11:42:30;;;;;;;52.00;16.88;;;0.40;99.90;;;;;;5053044;28;20080;-71
2023/01/25 11:45:02;;;;;;;51.95;16.30;;;0.40;99.90;;;;;;5036106;28;20057;-71
2023/01/25 11:47:53;;;;;;;57.30;17.67;;;0.40;99.90;;;;;;5051784;28;20049;-71
2023/01/25 11:50:45;;;;;;;53.38;17.40;;;0.30;99.90;;;;;;5051986;28;20052;-72
2023/01/25 11:53:11;;;;;;;51.20;16.38;;;0.30;99.90;;;;;;5052629;28;20099;-72
2023/01/25 11:55:50;;;;;;;59.95;17.63;;;0.40;99.90;;;;;;5053652;28;20084;-72
2023/01/25 11:58:36;;;;;;;56.35;16.20;;;0.50;99.90;;;;;;5053578;28;20048;-72
2023/01/25 12:01:24;;;;;;;55.70;17.55;;;0.50;99.90;;;;;;5053273;28;20387;-71
2023/01/25 12:03:53;;;;;;;64.57;19.27;;;0.50;99.90;;;;;;5052047;28;20051;-72
2023/01/25 12:06:46;;;;;;;59.78;19.00;;;0.50;99.90;;;;;;5052773;28;20099;-72
2023/01/25 12:09:31;;;;;;;61.45;18.70;;;0.40;99.90;;;;;;5053483;28;20045;-71
2023/01/25 12:12:21;;;;;;;60.30;18.45;;;0.40;99.90;;;;;;5053349;28;20389;-71
2023/01/25 12:15:23;;;;;;;56.85;17.65;;;0.40;99.90;;;;;;5051640;28;20074;-71
2023/01/25 12:17:54;;;;;;;58.20;18.20;;;0.50;99.90;;;;;;5085270;28;20052;-73
2023/01/25 12:20:32;;;;;;;57.80;17.88;;;0.60;99.90;;;;;;5052370;28;20072;-72
2023/01/25 12:23:10;;;;;;;65.32;19.83;;;0.50;99.90;;;;;;5052576;28;20404;-72
2023/01/25 12:26:13;;;;;;;57.67;17.30;;;0.50;99.90;;;;;;5052448;28;20111;-71
2023/01/25 12:28:45;;;;;;;55.25;16.92;;;0.60;99.90;;;;;;5053153;28;20053;-71
2023/01/25 12:31:30;;;;;;;54.65;16.80;;;0.50;99.90;;;;;;5034753;28;20186;-71
2023/01/25 12:34:00;;;;;;;54.55;16.15;;;0.50;99.90;;;;;;5085045;28;20486;-71
2023/01/25 12:36:39;;;;;;;59.42;18.05;;;0.40;99.90;;;;;;5052734;28;20070;-71
2023/01/25 12:39:11;;;;;;;54.90;16.38;;;0.30;99.90;;;;;;5051924;28;20109;-72
2023/01/25 12:41:56;;;;;;;53.08;16.55;;;0.40;99.90;;;;;;5051459;28;20464;-71
2023/01/25 12:44:45;;;;;;;49.47;14.32;;;0.30;99.90;;;;;;5052700;28;20443;-70
2023/01/25 12:47:47;;;;;;;54.88;16.83;;;0.30;99.90;;;;;;5053032;28;20045;-70
2023/01/25 12:50:27;;;;;;;53.35;14.27;;;0.20;99.90;;;;;;5056162;28;20045;-71
2023/01/25 12:53:23;;;;;;;53.85;17.08;;;0.30;99.90;;;;;;5056293;28;20481;-71